sensor_id;sensor_type;location;lat;lon;timestamp;temperature;humidity
13174;DHT22;6652;48.802;9.190;2024-03-25T00:01:49;6.10;99.90
13174;DHT22;6652;48.802;9.190;2024-03-25T00:04:15;6.10;99.90
13174;DHT22;6652;48.802;9.190;2024-03-25T00:06:41;6.10;99.90
13174;DHT22;6652;48.802;9.190;2024-03-25T00:09:08;6.00;99.90
13174;DHT22;6652;48.802;9.190;2024-03-25T00:11:39;6.00;99.90
13174;DHT22;6652;48.802;9.190;2024-03-25T00:14:06;6.00;99.90
13174;DHT22;6652;48.802;9.190;2024-03-25T00:16:32;6.00;99.90
13174;DHT22;6652;48.802;9.190;2024-03-25T00:19:00;6.00;99.90
13174;DHT22;6652;48.802;9.190;2024-03-25T00:21:26;6.00;99.90
13174;DHT22;6652;48.802;9.190;2024-03-25T00:23:53;6.00;99.90
13174;DHT22;6652;48.802;9.190;2024-03-25T00:26:22;6.00;99.90
13174;DHT22;6652;48.802;9.190;2024-03-25T00:28:49;6.00;99.90
13174;DHT22;6652;48.802;9.190;2024-03-25T00:31:15;6.00;99.90
13174;DHT22;6652;48.802;9.190;2024-03-25T00:33:42;6.00;99.90
13174;DHT22;6652;48.802;9.190;2024-03-25T00:36:09;6.00;99.90
13174;DHT22;6652;48.802;9.190;2024-03-25T00:38:36;5.90;99.90
13174;DHT22;6652;48.802;9.190;2024-03-25T00:41:02;5.90;99.90
13174;DHT22;6652;48.802;9.190;2024-03-25T00:43:29;5.80;99.90
13174;DHT22;6652;48.802;9.190;2024-03-25T00:45:55;5.80;99.90
13174;DHT22;6652;48.802;9.190;2024-03-25T00:48:22;5.80;99.90
13174;DHT22;6652;48.802;9.190;2024-03-25T00:50:48;5.80;99.90
13174;DHT22;6652;48.802;9.190;2024-03-25T00:53:17;5.80;99.90
13174;DHT22;6652;48.802;9.190;2024-03-25T00:55:43;5.80;99.90
13174;DHT22;6652;48.802;9.190;2024-03-25T00:58:10;5.80;99.90
13174;DHT22;6652;48.802;9.190;2024-03-25T01:00:36;5.80;99.90
13174;DHT22;6652;48.802;9.190;2024-03-25T01:03:03;5.70;99.90
13174;DHT22;6652;48.802;9.190;2024-03-25T01:05:30;5.70;99.90
13174;DHT22;6652;48.802;9.190;2024-03-25T01:07:56;5.70;99.90
13174;DHT22;6652;48.802;9.190;2024-03-25T01:10:24;5.70;99.90
13174;DHT22;6652;48.802;9.190;2024-03-25T01:12:51;5.70;99.90
13174;DHT22;6652;48.802;9.190;2024-03-25T01:15:18;5.70;99.90
13174;DHT22;6652;48.802;9.190;2024-03-25T01:17:45;5.70;99.90
13174;DHT22;6652;48.802;9.190;2024-03-25T01:20:11;5.70;99.90
13174;DHT22;6652;48.802;9.190;2024-03-25T01:22:38;5.60;99.90
13174;DHT22;6652;48.802;9.190;2024-03-25T01:25:05;5.70;99.90
13174;DHT22;6652;48.802;9.190;2024-03-25T01:27:33;5.60;99.90
13174;DHT22;6652;48.802;9.190;2024-03-25T01:29:59;5.70;99.90
13174;DHT22;6652;48.802;9.190;2024-03-25T01:32:29;5.70;99.90
13174;DHT22;6652;48.802;9.190;2024-03-25T01:34:56;5.70;99.90
13174;DHT22;6652;48.802;9.190;2024-03-25T01:37:22;5.70;99.90
13174;DHT22;6652;48.802;9.190;2024-03-25T01:39:48;5.60;99.90
13174;DHT22;6652;48.802;9.190;2024-03-25T01:42:15;5.60;99.90
13174;DHT22;6652;48.802;9.190;2024-03-25T01:44:43;5.60;99.90
13174;DHT22;6652;48.802;9.190;2024-03-25T01:47:10;5.60;99.90
13174;DHT22;6652;48.802;9.190;2024-03-25T01:49:35;5.60;99.90
13174;DHT22;6652;48.802;9.190;2024-03-25T01:52:03;5.70;99.90
13174;DHT22;6652;48.802;9.190;2024-03-25T01:54:29;5.60;99.90
13174;DHT22;6652;48.802;9.190;2024-03-25T01:56:56;5.60;99.90
13174;DHT22;6652;48.802;9.190;2024-03-25T01:59:23;5.60;99.90
13174;DHT22;6652;48.802;9.190;2024-03-25T02:01:53;5.60;99.90
13174;DHT22;6652;48.802;9.190;2024-03-25T02:04:20;5.60;99.90
13174;DHT22;6652;48.802;9.190;2024-03-25T02:06:47;5.60;99.90
13174;DHT22;6652;48.802;9.190;2024-03-25T02:09:15;5.60;99.90
13174;DHT22;6652;48.802;9.190;2024-03-25T02:11:42;5.60;99.90
13174;DHT22;6652;48.802;9.190;2024-03-25T02:14:09;5.60;99.90
13174;DHT22;6652;48.802;9.190;2024-03-25T02:16:36;5.60;99.90
13174;DHT22;6652;48.802;9.190;2024-03-25T02:19:03;5.60;99.90
13174;DHT22;6652;48.802;9.190;2024-03-25T02:21:30;5.60;99.90
13174;DHT22;6652;48.802;9.190;2024-03-25T02:23:56;5.60;99.90
13174;DHT22;6652;48.802;9.190;2024-03-25T02:26:27;5.60;99.90
13174;DHT22;6652;48.802;9.190;2024-03-25T02:28:53;5.60;99.90
13174;DHT22;6652;48.802;9.190;2024-03-25T02:31:20;5.70;99.90
13174;DHT22;6652;48.802;9.190;2024-03-25T02:33:46;5.70;99.90
13174;DHT22;6652;48.802;9.190;2024-03-25T02:36:13;5.70;99.90
13174;DHT22;6652;48.802;9.190;2024-03-25T02:38:39;5.70;99.90
13174;DHT22;6652;48.802;9.190;2024-03-25T02:41:06;5.70;99.90
13174;DHT22;6652;48.802;9.190;2024-03-25T02:43:34;5.70;99.90
13174;DHT22;6652;48.802;9.190;2024-03-25T02:46:00;5.70;99.90
13174;DHT22;6652;48.802;9.190;2024-03-25T02:48:26;5.70;99.90
13174;DHT22;6652;48.802;9.190;2024-03-25T02:50:53;5.70;99.90
13174;DHT22;6652;48.802;9.190;2024-03-25T02:53:19;5.80;99.90
13174;DHT22;6652;48.802;9.190;2024-03-25T02:55:46;5.80;99.90
13174;DHT22;6652;48.802;9.190;2024-03-25T02:58:12;5.80;99.90
13174;DHT22;6652;48.802;9.190;2024-03-25T03:00:40;5.80;99.90
13174;DHT22;6652;48.802;9.190;2024-03-25T03:03:07;5.80;99.90
13174;DHT22;6652;48.802;9.190;2024-03-25T03:05:34;5.80;99.90
13174;DHT22;6652;48.802;9.190;2024-03-25T03:08:00;5.80;99.90
13174;DHT22;6652;48.802;9.190;2024-03-25T03:10:27;5.80;99.90
13174;DHT22;6652;48.802;9.190;2024-03-25T03:12:53;5.80;99.90
13174;DHT22;6652;48.802;9.190;2024-03-25T03:15:20;5.80;99.90
13174;DHT22;6652;48.802;9.190;2024-03-25T03:17:48;5.80;99.90
13174;DHT22;6652;48.802;9.190;2024-03-25T03:20:15;5.80;99.90
13174;DHT22;6652;48.802;9.190;2024-03-25T03:22:41;5.70;99.90
13174;DHT22;6652;48.802;9.190;2024-03-25T03:25:08;5.70;99.90
13174;DHT22;6652;48.802;9.190;2024-03-25T03:27:34;5.70;99.90
13174;DHT22;6652;48.802;9.190;2024-03-25T03:30:00;5.70;99.90
13174;DHT22;6652;48.802;9.190;2024-03-25T03:32:26;5.70;99.90
13174;DHT22;6652;48.802;9.190;2024-03-25T03:34:54;5.70;99.90
13174;DHT22;6652;48.802;9.190;2024-03-25T03:37:20;5.60;99.90
13174;DHT22;6652;48.802;9.190;2024-03-25T03:39:47;5.60;99.90
13174;DHT22;6652;48.802;9.190;2024-03-25T03:42:13;5.50;99.90
13174;DHT22;6652;48.802;9.190;2024-03-25T03:44:40;5.50;99.90
13174;DHT22;6652;48.802;9.190;2024-03-25T03:47:06;5.40;99.90
13174;DHT22;6652;48.802;9.190;2024-03-25T03:49:32;5.40;99.90
13174;DHT22;6652;48.802;9.190;2024-03-25T03:52:00;5.30;99.90
13174;DHT22;6652;48.802;9.190;2024-03-25T03:54:26;5.30;99.90
13174;DHT22;6652;48.802;9.190;2024-03-25T03:56:52;5.40;99.90
13174;DHT22;6652;48.802;9.190;2024-03-25T03:59:19;5.40;99.90
13174;DHT22;6652;48.802;9.190;2024-03-25T04:01:45;5.40;99.90
13174;DHT22;6652;48.802;9.190;2024-03-25T04:04:11;5.40;99.90
13174;DHT22;6652;48.802;9.190;2024-03-25T04:06:37;5.40;99.90
13174;DHT22;6652;48.802;9.190;2024-03-25T04:09:07;5.30;99.90
13174;DHT22;6652;48.802;9.190;2024-03-25T04:11:35;5.30;99.90
13174;DHT22;6652;48.802;9.190;2024-03-25T04:14:02;5.30;99.90
13174;DHT22;6652;48.802;9.190;2024-03-25T04:16:28;5.30;99.90
13174;DHT22;6652;48.802;9.190;2024-03-25T04:18:56;5.30;99.90
13174;DHT22;6652;48.802;9.190;2024-03-25T04:21:22;5.30;99.90
13174;DHT22;6652;48.802;9.190;2024-03-25T04:23:49;5.30;99.90
13174;DHT22;6652;48.802;9.190;2024-03-25T04:26:16;5.30;99.90
13174;DHT22;6652;48.802;9.190;2024-03-25T04:28:43;5.30;99.90
13174;DHT22;6652;48.802;9.190;2024-03-25T04:31:09;5.30;99.90
13174;DHT22;6652;48.802;9.190;2024-03-25T04:33:36;5.30;99.90
13174;DHT22;6652;48.802;9.190;2024-03-25T04:36:02;5.30;99.90
13174;DHT22;6652;48.802;9.190;2024-03-25T04:38:29;5.30;99.90
13174;DHT22;6652;48.802;9.190;2024-03-25T04:40:55;5.30;99.90
13174;DHT22;6652;48.802;9.190;2024-03-25T04:43:22;5.30;99.90
13174;DHT22;6652;48.802;9.190;2024-03-25T04:45:48;5.30;99.90
13174;DHT22;6652;48.802;9.190;2024-03-25T04:48:14;5.30;99.90
13174;DHT22;6652;48.802;9.190;2024-03-25T04:50:40;5.30;99.90
13174;DHT22;6652;48.802;9.190;2024-03-25T04:53:06;5.30;99.90
13174;DHT22;6652;48.802;9.190;2024-03-25T04:55:32;5.30;99.90
13174;DHT22;6652;48.802;9.190;2024-03-25T04:57:58;5.30;99.90
13174;DHT22;6652;48.802;9.190;2024-03-25T05:00:25;5.30;99.90
13174;DHT22;6652;48.802;9.190;2024-03-25T05:02:51;5.20;99.90
13174;DHT22;6652;48.802;9.190;2024-03-25T05:05:17;5.20;99.90
13174;DHT22;6652;48.802;9.190;2024-03-25T05:07:43;5.20;99.90
13174;DHT22;6652;48.802;9.190;2024-03-25T05:10:09;5.20;99.90
13174;DHT22;6652;48.802;9.190;2024-03-25T05:12:35;5.20;99.90
13174;DHT22;6652;48.802;9.190;2024-03-25T05:15:01;5.20;99.90
13174;DHT22;6652;48.802;9.190;2024-03-25T05:17:28;5.20;99.90
13174;DHT22;6652;48.802;9.190;2024-03-25T05:19:54;5.10;99.90
13174;DHT22;6652;48.802;9.190;2024-03-25T05:22:20;5.10;99.90
13174;DHT22;6652;48.802;9.190;2024-03-25T05:24:46;5.10;99.90
13174;DHT22;6652;48.802;9.190;2024-03-25T05:27:11;5.00;99.90
13174;DHT22;6652;48.802;9.190;2024-03-25T05:29:37;5.00;99.90
13174;DHT22;6652;48.802;9.190;2024-03-25T05:32:04;5.00;99.90
13174;DHT22;6652;48.802;9.190;2024-03-25T05:34:31;5.00;99.90
13174;DHT22;6652;48.802;9.190;2024-03-25T05:36:57;5.00;99.90
13174;DHT22;6652;48.802;9.190;2024-03-25T05:39:23;5.00;99.90
13174;DHT22;6652;48.802;9.190;2024-03-25T05:41:49;5.10;99.90
13174;DHT22;6652;48.802;9.190;2024-03-25T05:44:15;5.10;99.90
13174;DHT22;6652;48.802;9.190;2024-03-25T05:46:41;5.20;99.90
13174;DHT22;6652;48.802;9.190;2024-03-25T05:49:07;5.30;99.90
13174;DHT22;6652;48.802;9.190;2024-03-25T05:51:34;5.30;99.90
13174;DHT22;6652;48.802;9.190;2024-03-25T05:54:00;5.40;99.90
13174;DHT22;6652;48.802;9.190;2024-03-25T05:56:26;5.50;99.90
13174;DHT22;6652;48.802;9.190;2024-03-25T05:58:52;6.10;99.90
13174;DHT22;6652;48.802;9.190;2024-03-25T06:01:18;6.90;99.90
13174;DHT22;6652;48.802;9.190;2024-03-25T06:03:44;7.70;99.90
13174;DHT22;6652;48.802;9.190;2024-03-25T06:06:10;8.40;99.90
13174;DHT22;6652;48.802;9.190;2024-03-25T06:08:37;8.50;99.90
13174;DHT22;6652;48.802;9.190;2024-03-25T06:11:03;8.20;99.90
13174;DHT22;6652;48.802;9.190;2024-03-25T06:13:29;8.10;99.90
13174;DHT22;6652;48.802;9.190;2024-03-25T06:15:55;8.70;99.90
13174;DHT22;6652;48.802;9.190;2024-03-25T06:18:21;9.70;99.90
13174;DHT22;6652;48.802;9.190;2024-03-25T06:20:47;10.50;99.90
13174;DHT22;6652;48.802;9.190;2024-03-25T06:23:22;11.40;99.90
13174;DHT22;6652;48.802;9.190;2024-03-25T06:25:51;12.40;99.90
13174;DHT22;6652;48.802;9.190;2024-03-25T06:28:17;13.10;99.90
13174;DHT22;6652;48.802;9.190;2024-03-25T06:30:44;13.80;99.90
13174;DHT22;6652;48.802;9.190;2024-03-25T06:33:28;14.40;99.90
13174;DHT22;6652;48.802;9.190;2024-03-25T06:36:13;14.70;99.90
13174;DHT22;6652;48.802;9.190;2024-03-25T06:38:39;15.30;99.90
13174;DHT22;6652;48.802;9.190;2024-03-25T06:41:06;15.70;99.90
13174;DHT22;6652;48.802;9.190;2024-03-25T06:43:32;16.40;99.90
13174;DHT22;6652;48.802;9.190;2024-03-25T06:45:58;17.10;99.90
13174;DHT22;6652;48.802;9.190;2024-03-25T06:48:24;17.70;98.50
13174;DHT22;6652;48.802;9.190;2024-03-25T06:50:54;17.90;96.90
13174;DHT22;6652;48.802;9.190;2024-03-25T06:53:20;18.20;96.10
13174;DHT22;6652;48.802;9.190;2024-03-25T06:55:53;18.60;95.40
13174;DHT22;6652;48.802;9.190;2024-03-25T06:58:21;19.10;92.80
13174;DHT22;6652;48.802;9.190;2024-03-25T07:00:48;19.50;91.60
13174;DHT22;6652;48.802;9.190;2024-03-25T07:03:14;19.90;90.30
13174;DHT22;6652;48.802;9.190;2024-03-25T07:05:40;20.30;87.30
13174;DHT22;6652;48.802;9.190;2024-03-25T07:08:06;19.80;84.40
13174;DHT22;6652;48.802;9.190;2024-03-25T07:10:31;18.90;83.80
13174;DHT22;6652;48.802;9.190;2024-03-25T07:12:57;18.40;85.20
13174;DHT22;6652;48.802;9.190;2024-03-25T07:15:25;19.00;86.30
13174;DHT22;6652;48.802;9.190;2024-03-25T07:17:51;19.60;84.20
13174;DHT22;6652;48.802;9.190;2024-03-25T07:20:16;20.20;81.70
13174;DHT22;6652;48.802;9.190;2024-03-25T07:25:18;20.00;78.20
13174;DHT22;6652;48.802;9.190;2024-03-25T07:27:44;20.50;77.70
13174;DHT22;6652;48.802;9.190;2024-03-25T07:30:10;21.40;76.10
13174;DHT22;6652;48.802;9.190;2024-03-25T07:32:37;22.00;71.80
13174;DHT22;6652;48.802;9.190;2024-03-25T07:35:04;22.40;69.40
13174;DHT22;6652;48.802;9.190;2024-03-25T07:37:30;22.70;67.30
13174;DHT22;6652;48.802;9.190;2024-03-25T07:39:58;23.20;65.40
13174;DHT22;6652;48.802;9.190;2024-03-25T07:42:24;23.50;61.10
13174;DHT22;6652;48.802;9.190;2024-03-25T07:44:50;23.50;60.00
13174;DHT22;6652;48.802;9.190;2024-03-25T07:47:15;23.70;58.90
13174;DHT22;6652;48.802;9.190;2024-03-25T07:49:43;24.10;57.90
13174;DHT22;6652;48.802;9.190;2024-03-25T07:52:09;24.70;55.80
13174;DHT22;6652;48.802;9.190;2024-03-25T07:54:34;24.70;53.90
13174;DHT22;6652;48.802;9.190;2024-03-25T07:57:01;23.60;52.60
13174;DHT22;6652;48.802;9.190;2024-03-25T07:59:27;22.40;54.40
13174;DHT22;6652;48.802;9.190;2024-03-25T08:01:52;22.90;54.50
13174;DHT22;6652;48.802;9.190;2024-03-25T08:04:18;23.70;53.70
13174;DHT22;6652;48.802;9.190;2024-03-25T08:06:46;24.10;51.50
13174;DHT22;6652;48.802;9.190;2024-03-25T08:09:11;22.90;49.50
13174;DHT22;6652;48.802;9.190;2024-03-25T08:11:38;21.00;49.70
13174;DHT22;6652;48.802;9.190;2024-03-25T08:14:04;19.30;52.30
13174;DHT22;6652;48.802;9.190;2024-03-25T08:16:30;17.80;54.60
13174;DHT22;6652;48.802;9.190;2024-03-25T08:18:56;16.80;56.00
13174;DHT22;6652;48.802;9.190;2024-03-25T08:21:23;16.10;57.60
13174;DHT22;6652;48.802;9.190;2024-03-25T08:23:50;16.00;57.90
13174;DHT22;6652;48.802;9.190;2024-03-25T08:26:16;17.00;58.50
13174;DHT22;6652;48.802;9.190;2024-03-25T08:28:42;17.40;57.50
13174;DHT22;6652;48.802;9.190;2024-03-25T08:31:08;18.80;56.80
13174;DHT22;6652;48.802;9.190;2024-03-25T08:33:35;20.40;55.50
13174;DHT22;6652;48.802;9.190;2024-03-25T08:36:01;21.70;54.00
13174;DHT22;6652;48.802;9.190;2024-03-25T08:38:26;22.40;52.40
13174;DHT22;6652;48.802;9.190;2024-03-25T08:40:54;21.80;52.80
13174;DHT22;6652;48.802;9.190;2024-03-25T08:43:20;22.60;51.00
13174;DHT22;6652;48.802;9.190;2024-03-25T08:45:46;22.80;49.30
13174;DHT22;6652;48.802;9.190;2024-03-25T08:48:13;23.10;49.60
13174;DHT22;6652;48.802;9.190;2024-03-25T08:50:39;23.30;47.70
13174;DHT22;6652;48.802;9.190;2024-03-25T08:53:05;23.00;46.80
13174;DHT22;6652;48.802;9.190;2024-03-25T08:55:31;23.90;48.20
13174;DHT22;6652;48.802;9.190;2024-03-25T08:57:59;23.90;45.90
13174;DHT22;6652;48.802;9.190;2024-03-25T09:00:25;24.30;46.60
13174;DHT22;6652;48.802;9.190;2024-03-25T09:02:51;25.10;47.00
13174;DHT22;6652;48.802;9.190;2024-03-25T09:05:17;25.70;44.60
13174;DHT22;6652;48.802;9.190;2024-03-25T09:07:44;26.30;42.20
13174;DHT22;6652;48.802;9.190;2024-03-25T09:10:10;26.10;36.60
13174;DHT22;6652;48.802;9.190;2024-03-25T09:12:54;25.50;39.20
13174;DHT22;6652;48.802;9.190;2024-03-25T09:15:21;25.80;39.70
13174;DHT22;6652;48.802;9.190;2024-03-25T09:17:47;25.50;40.40
13174;DHT22;6652;48.802;9.190;2024-03-25T09:20:13;25.50;41.10
13174;DHT22;6652;48.802;9.190;2024-03-25T09:22:42;25.20;40.20
13174;DHT22;6652;48.802;9.190;2024-03-25T09:25:08;24.50;41.50
13174;DHT22;6652;48.802;9.190;2024-03-25T09:27:34;24.50;41.50
13174;DHT22;6652;48.802;9.190;2024-03-25T09:30:00;24.70;41.60
13174;DHT22;6652;48.802;9.190;2024-03-25T09:32:27;25.10;41.00
13174;DHT22;6652;48.802;9.190;2024-03-25T09:34:53;25.60;39.80
13174;DHT22;6652;48.802;9.190;2024-03-25T09:37:19;25.90;38.70
13174;DHT22;6652;48.802;9.190;2024-03-25T09:39:44;25.70;38.60
13174;DHT22;6652;48.802;9.190;2024-03-25T09:42:14;24.70;37.50
13174;DHT22;6652;48.802;9.190;2024-03-25T09:44:41;22.20;40.60
13174;DHT22;6652;48.802;9.190;2024-03-25T09:47:07;21.60;43.00
13174;DHT22;6652;48.802;9.190;2024-03-25T09:49:35;22.60;42.50
13174;DHT22;6652;48.802;9.190;2024-03-25T09:52:01;23.30;40.00
13174;DHT22;6652;48.802;9.190;2024-03-25T09:54:27;24.10;40.40
13174;DHT22;6652;48.802;9.190;2024-03-25T09:56:53;24.40;39.90
13174;DHT22;6652;48.802;9.190;2024-03-25T09:59:20;25.10;38.70
13174;DHT22;6652;48.802;9.190;2024-03-25T10:01:46;25.10;37.30
13174;DHT22;6652;48.802;9.190;2024-03-25T10:04:12;24.70;37.80
13174;DHT22;6652;48.802;9.190;2024-03-25T10:06:41;25.00;37.80
13174;DHT22;6652;48.802;9.190;2024-03-25T10:09:06;24.70;37.00
13174;DHT22;6652;48.802;9.190;2024-03-25T10:11:33;24.40;37.80
13174;DHT22;6652;48.802;9.190;2024-03-25T10:13:59;24.50;38.30
13174;DHT22;6652;48.802;9.190;2024-03-25T10:16:25;24.90;37.20
13174;DHT22;6652;48.802;9.190;2024-03-25T10:18:51;25.00;36.20
13174;DHT22;6652;48.802;9.190;2024-03-25T10:21:20;25.20;36.60
13174;DHT22;6652;48.802;9.190;2024-03-25T10:23:47;24.90;36.00
13174;DHT22;6652;48.802;9.190;2024-03-25T10:26:26;24.30;37.00
13174;DHT22;6652;48.802;9.190;2024-03-25T10:29:02;23.80;37.40
13174;DHT22;6652;48.802;9.190;2024-03-25T10:31:29;23.70;37.70
13174;DHT22;6652;48.802;9.190;2024-03-25T10:33:55;23.80;37.80
13174;DHT22;6652;48.802;9.190;2024-03-25T10:36:21;23.80;38.20
13174;DHT22;6652;48.802;9.190;2024-03-25T10:38:50;23.90;38.00
13174;DHT22;6652;48.802;9.190;2024-03-25T10:41:18;23.80;38.40
13174;DHT22;6652;48.802;9.190;2024-03-25T10:43:47;23.50;38.00
13174;DHT22;6652;48.802;9.190;2024-03-25T10:46:17;23.40;38.70
13174;DHT22;6652;48.802;9.190;2024-03-25T10:48:48;23.30;38.40
13174;DHT22;6652;48.802;9.190;2024-03-25T10:53:54;20.60;41.00
13174;DHT22;6652;48.802;9.190;2024-03-25T11:01:33;18.70;43.10
13174;DHT22;6652;48.802;9.190;2024-03-25T11:03:59;18.10;44.20
13174;DHT22;6652;48.802;9.190;2024-03-25T11:06:26;17.70;45.30
13174;DHT22;6652;48.802;9.190;2024-03-25T11:08:58;17.40;45.50
13174;DHT22;6652;48.802;9.190;2024-03-25T11:11:24;16.90;46.00
13174;DHT22;6652;48.802;9.190;2024-03-25T11:13:56;16.80;46.10
13174;DHT22;6652;48.802;9.190;2024-03-25T11:16:28;16.60;46.90
13174;DHT22;6652;48.802;9.190;2024-03-25T11:18:54;16.40;47.10
13174;DHT22;6652;48.802;9.190;2024-03-25T11:21:25;16.10;48.60
13174;DHT22;6652;48.802;9.190;2024-03-25T11:24:05;15.90;49.10
13174;DHT22;6652;48.802;9.190;2024-03-25T11:26:31;14.30;48.00
13174;DHT22;6652;48.802;9.190;2024-03-25T11:28:57;15.70;48.30
13174;DHT22;6652;48.802;9.190;2024-03-25T11:31:25;15.60;48.40
13174;DHT22;6652;48.802;9.190;2024-03-25T11:33:51;15.30;48.80
13174;DHT22;6652;48.802;9.190;2024-03-25T11:36:17;14.90;49.40
13174;DHT22;6652;48.802;9.190;2024-03-25T11:38:43;14.90;50.30
13174;DHT22;6652;48.802;9.190;2024-03-25T11:41:11;14.80;50.10
13174;DHT22;6652;48.802;9.190;2024-03-25T11:43:38;14.60;50.80
13174;DHT22;6652;48.802;9.190;2024-03-25T11:46:05;14.60;51.70
13174;DHT22;6652;48.802;9.190;2024-03-25T11:48:32;14.70;51.50
13174;DHT22;6652;48.802;9.190;2024-03-25T11:50:58;14.70;51.40
13174;DHT22;6652;48.802;9.190;2024-03-25T11:53:24;14.50;49.80
13174;DHT22;6652;48.802;9.190;2024-03-25T11:55:50;14.30;51.70
13174;DHT22;6652;48.802;9.190;2024-03-25T11:58:17;14.10;51.10
13174;DHT22;6652;48.802;9.190;2024-03-25T12:00:44;13.70;51.30
13174;DHT22;6652;48.802;9.190;2024-03-25T12:03:10;13.50;52.60
13174;DHT22;6652;48.802;9.190;2024-03-25T12:05:37;13.60;53.30
13174;DHT22;6652;48.802;9.190;2024-03-25T12:08:05;13.70;52.70
13174;DHT22;6652;48.802;9.190;2024-03-25T12:10:32;13.60;52.30
13174;DHT22;6652;48.802;9.190;2024-03-25T12:13:19;13.70;52.90
13174;DHT22;6652;48.802;9.190;2024-03-25T12:15:45;14.10;52.50
13174;DHT22;6652;48.802;9.190;2024-03-25T12:18:11;14.00;52.30
13174;DHT22;6652;48.802;9.190;2024-03-25T12:20:37;14.10;52.10
13174;DHT22;6652;48.802;9.190;2024-03-25T12:23:04;14.00;51.20
13174;DHT22;6652;48.802;9.190;2024-03-25T12:25:30;13.90;51.90
13174;DHT22;6652;48.802;9.190;2024-03-25T12:27:56;14.20;53.20
13174;DHT22;6652;48.802;9.190;2024-03-25T12:30:23;14.50;52.00
13174;DHT22;6652;48.802;9.190;2024-03-25T12:32:50;14.70;52.60
13174;DHT22;6652;48.802;9.190;2024-03-25T12:35:18;14.90;51.50
13174;DHT22;6652;48.802;9.190;2024-03-25T12:37:45;14.70;50.90
13174;DHT22;6652;48.802;9.190;2024-03-25T12:40:13;14.50;52.00
13174;DHT22;6652;48.802;9.190;2024-03-25T12:42:40;14.50;53.50
13174;DHT22;6652;48.802;9.190;2024-03-25T12:45:06;14.30;53.00
13174;DHT22;6652;48.802;9.190;2024-03-25T12:47:34;14.10;52.90
13174;DHT22;6652;48.802;9.190;2024-03-25T12:50:00;13.80;53.50
13174;DHT22;6652;48.802;9.190;2024-03-25T12:52:26;13.70;53.80
13174;DHT22;6652;48.802;9.190;2024-03-25T12:54:52;13.50;54.00
13174;DHT22;6652;48.802;9.190;2024-03-25T12:57:18;13.40;54.30
13174;DHT22;6652;48.802;9.190;2024-03-25T12:59:44;13.40;54.20
13174;DHT22;6652;48.802;9.190;2024-03-25T13:02:12;13.50;54.60
13174;DHT22;6652;48.802;9.190;2024-03-25T13:04:41;13.60;54.20
13174;DHT22;6652;48.802;9.190;2024-03-25T13:07:07;13.60;52.70
13174;DHT22;6652;48.802;9.190;2024-03-25T13:09:33;13.60;51.70
13174;DHT22;6652;48.802;9.190;2024-03-25T13:11:59;13.60;52.90
13174;DHT22;6652;48.802;9.190;2024-03-25T13:14:25;13.40;53.70
13174;DHT22;6652;48.802;9.190;2024-03-25T13:16:51;13.40;54.30
13174;DHT22;6652;48.802;9.190;2024-03-25T13:19:17;13.30;53.40
13174;DHT22;6652;48.802;9.190;2024-03-25T13:21:45;13.30;53.40
13174;DHT22;6652;48.802;9.190;2024-03-25T13:24:11;13.30;52.90
13174;DHT22;6652;48.802;9.190;2024-03-25T13:26:36;13.50;54.20
13174;DHT22;6652;48.802;9.190;2024-03-25T13:29:02;13.60;53.80
13174;DHT22;6652;48.802;9.190;2024-03-25T13:31:28;13.80;54.10
13174;DHT22;6652;48.802;9.190;2024-03-25T13:33:54;14.00;53.80
13174;DHT22;6652;48.802;9.190;2024-03-25T13:36:20;14.10;53.20
13174;DHT22;6652;48.802;9.190;2024-03-25T13:38:47;14.00;52.20
13174;DHT22;6652;48.802;9.190;2024-03-25T13:41:13;13.90;52.20
13174;DHT22;6652;48.802;9.190;2024-03-25T13:43:42;13.80;53.20
13174;DHT22;6652;48.802;9.190;2024-03-25T13:46:08;13.90;53.60
13174;DHT22;6652;48.802;9.190;2024-03-25T13:48:34;13.80;53.30
13174;DHT22;6652;48.802;9.190;2024-03-25T13:51:00;13.80;53.20
13174;DHT22;6652;48.802;9.190;2024-03-25T13:53:26;13.80;53.70
13174;DHT22;6652;48.802;9.190;2024-03-25T13:55:53;14.00;54.30
13174;DHT22;6652;48.802;9.190;2024-03-25T13:58:19;13.90;53.40
13174;DHT22;6652;48.802;9.190;2024-03-25T14:00:45;14.00;53.00
13174;DHT22;6652;48.802;9.190;2024-03-25T14:03:11;13.70;51.50
13174;DHT22;6652;48.802;9.190;2024-03-25T14:05:37;13.50;52.50
13174;DHT22;6652;48.802;9.190;2024-03-25T14:08:03;13.40;53.10
13174;DHT22;6652;48.802;9.190;2024-03-25T14:10:29;13.50;53.50
13174;DHT22;6652;48.802;9.190;2024-03-25T14:12:57;13.50;53.00
13174;DHT22;6652;48.802;9.190;2024-03-25T14:15:23;13.50;53.10
13174;DHT22;6652;48.802;9.190;2024-03-25T14:17:48;13.50;53.50
13174;DHT22;6652;48.802;9.190;2024-03-25T14:20:14;13.50;53.70
13174;DHT22;6652;48.802;9.190;2024-03-25T14:22:40;13.50;53.90
13174;DHT22;6652;48.802;9.190;2024-03-25T14:25:07;13.40;53.40
13174;DHT22;6652;48.802;9.190;2024-03-25T14:27:33;13.30;54.10
13174;DHT22;6652;48.802;9.190;2024-03-25T14:30:00;13.30;54.10
13174;DHT22;6652;48.802;9.190;2024-03-25T14:32:26;13.30;54.50
13174;DHT22;6652;48.802;9.190;2024-03-25T14:34:52;13.50;54.20
13174;DHT22;6652;48.802;9.190;2024-03-25T14:37:18;13.40;53.40
13174;DHT22;6652;48.802;9.190;2024-03-25T14:39:44;13.30;53.10
13174;DHT22;6652;48.802;9.190;2024-03-25T14:42:10;13.20;54.10
13174;DHT22;6652;48.802;9.190;2024-03-25T14:44:37;13.40;54.10
13174;DHT22;6652;48.802;9.190;2024-03-25T14:47:04;13.50;53.50
13174;DHT22;6652;48.802;9.190;2024-03-25T14:49:30;13.50;51.90
13174;DHT22;6652;48.802;9.190;2024-03-25T14:51:57;13.50;51.80
13174;DHT22;6652;48.802;9.190;2024-03-25T14:54:23;13.40;51.10
13174;DHT22;6652;48.802;9.190;2024-03-25T14:56:49;13.40;51.90
13174;DHT22;6652;48.802;9.190;2024-03-25T14:59:15;13.40;51.80
13174;DHT22;6652;48.802;9.190;2024-03-25T15:01:41;13.50;52.10
13174;DHT22;6652;48.802;9.190;2024-03-25T15:04:08;13.60;51.90
13174;DHT22;6652;48.802;9.190;2024-03-25T15:06:34;13.60;52.00
13174;DHT22;6652;48.802;9.190;2024-03-25T15:09:00;13.50;51.10
13174;DHT22;6652;48.802;9.190;2024-03-25T15:11:26;13.40;50.90
13174;DHT22;6652;48.802;9.190;2024-03-25T15:13:53;13.30;50.80
13174;DHT22;6652;48.802;9.190;2024-03-25T15:16:19;13.10;50.80
13174;DHT22;6652;48.802;9.190;2024-03-25T15:18:45;13.10;51.60
13174;DHT22;6652;48.802;9.190;2024-03-25T15:21:12;13.20;51.90
13174;DHT22;6652;48.802;9.190;2024-03-25T15:23:38;13.30;51.50
13174;DHT22;6652;48.802;9.190;2024-03-25T15:26:04;13.20;51.30
13174;DHT22;6652;48.802;9.190;2024-03-25T15:28:30;13.20;50.90
13174;DHT22;6652;48.802;9.190;2024-03-25T15:30:56;13.20;51.40
13174;DHT22;6652;48.802;9.190;2024-03-25T15:33:22;13.20;51.20
13174;DHT22;6652;48.802;9.190;2024-03-25T15:35:48;13.20;51.20
13174;DHT22;6652;48.802;9.190;2024-03-25T15:38:22;13.20;50.40
13174;DHT22;6652;48.802;9.190;2024-03-25T15:40:48;13.10;50.30
13174;DHT22;6652;48.802;9.190;2024-03-25T15:43:14;13.10;50.30
13174;DHT22;6652;48.802;9.190;2024-03-25T15:45:40;13.10;50.00
13174;DHT22;6652;48.802;9.190;2024-03-25T15:48:06;13.00;50.20
13174;DHT22;6652;48.802;9.190;2024-03-25T15:50:32;13.00;50.70
13174;DHT22;6652;48.802;9.190;2024-03-25T15:52:58;13.10;51.50
13174;DHT22;6652;48.802;9.190;2024-03-25T15:55:26;13.00;51.40
13174;DHT22;6652;48.802;9.190;2024-03-25T15:57:53;13.00;51.50
13174;DHT22;6652;48.802;9.190;2024-03-25T16:00:20;13.00;52.10